Time;durP1;ratioP1;P1;durP2;ratioP2;P2;SDS_P1;SDS_P2;PMS_P1;PMS_P2;Temp;Humidity;BMP_temperature;BMP_pressure;BME280_temperature;BME280_humidity;BME280_pressure;Samples;Min_cycle;Max_cycle;Signal;HPM_P1;HPM_P2
2022/04/19 00:01:06;;;;;;;;;;;;;;;2.65;87.80;99336.38;4954914;28;832;-58
2022/04/19 00:03:33;;;;;;;;;;;;;;;2.63;88.71;99327.75;4955783;29;819;-58
2022/04/19 00:06:00;;;;;;;;;;;;;;;2.59;90.41;99327.69;4955760;28;808;-58
2022/04/19 00:08:27;;;;;;;;;;;;;;;2.54;91.03;99330.72;4955857;29;1974;-58
2022/04/19 00:10:53;;;;;;;;;;;;;;;2.52;92.11;99330.28;4955544;29;784;-58
2022/04/19 00:13:20;;;;;;;;;;;;;;;2.51;92.59;99336.88;4955581;29;852;-59
2022/04/19 00:15:47;;;;;;;;;;;;;;;2.45;92.80;99328.19;4955504;29;911;-58
2022/04/19 00:18:14;;;;;;;;;;;;;;;2.43;93.95;99330.50;4955503;29;906;-59
2022/04/19 00:20:44;;;;;;;;;;;;;;;2.48;93.46;99326.69;4955503;29;812;-58
2022/04/19 00:23:15;;;;;;;;;;;;;;;2.55;92.47;99328.75;4955510;29;944;-58
2022/04/19 00:25:42;;;;;;;;;;;;;;;2.56;88.43;99328.41;4955332;29;1422;-58
2022/04/19 00:28:10;;;;;;;;;;;;;;;2.67;87.75;99328.63;4955383;29;1919;-58
2022/04/19 00:30:36;;;;;;;;;;;;;;;2.75;85.82;99326.78;4955412;28;910;-58
2022/04/19 00:33:03;;;;;;;;;;;;;;;2.83;85.82;99323.84;4955657;29;800;-58
2022/04/19 00:35:30;;;;;;;;;;;;;;;2.86;85.36;99317.66;4938050;29;717;-58
2022/04/19 00:37:59;;;;;;;;;;;;;;;2.82;87.42;99326.94;4955309;28;816;-58
2022/04/19 00:40:25;;;;;;;;;;;;;;;2.80;87.80;99321.06;4955186;29;812;-58
2022/04/19 00:42:54;;;;;;;;;;;;;;;2.82;87.61;99318.75;4955119;29;839;-59
2022/04/19 00:45:24;;;;;;;;;;;;;;;2.85;87.19;99315.28;4955136;29;816;-58
2022/04/19 00:47:51;;;;;;;;;;;;;;;2.86;85.74;99327.81;4955112;29;1940;-58
2022/04/19 00:50:18;;;;;;;;;;;;;;;2.82;86.04;99318.75;4954969;28;796;-58
2022/04/19 00:52:45;;;;;;;;;;;;;;;2.79;86.83;99325.69;4955265;29;854;-58
2022/04/19 00:55:13;;;;;;;;;;;;;;;2.74;87.41;99328.75;4954841;29;886;-58
2022/04/19 00:57:41;;;;;;;;;;;;;;;2.71;88.87;99326.75;4937697;29;828;-58
2022/04/19 01:00:10;;;;;;;;;;;;;;;2.64;89.70;99321.91;4954766;29;859;-58
2022/04/19 01:02:37;;;;;;;;;;;;;;;2.62;90.26;99324.25;4954857;28;1030;-58
2022/04/19 01:05:04;;;;;;;;;;;;;;;2.59;91.26;99324.16;4954609;29;954;-58
2022/04/19 01:07:31;;;;;;;;;;;;;;;2.52;91.67;99322.09;4954654;29;824;-58
2022/04/19 01:09:58;;;;;;;;;;;;;;;2.44;93.12;99312.97;4954335;28;1970;-58
2022/04/19 01:15:12;;;;;;;;;;;;;;;2.45;93.40;99313.75;4954791;29;642;-58
2022/04/19 01:17:42;;;;;;;;;;;;;;;2.47;91.93;99311.44;4954625;28;856;-58
2022/04/19 01:20:09;;;;;;;;;;;;;;;2.51;90.54;99317.00;4954357;29;967;-58
2022/04/19 01:22:39;;;;;;;;;;;;;;;2.52;90.21;99321.28;4954396;29;893;-58
2022/04/19 01:25:06;;;;;;;;;;;;;;;2.51;90.02;99323.22;4954398;28;1356;-58
2022/04/19 01:27:33;;;;;;;;;;;;;;;2.50;90.44;99323.56;4954425;29;875;-58
2022/04/19 01:30:02;;;;;;;;;;;;;;;2.52;89.71;99332.19;4954212;29;1968;-58
2022/04/19 01:32:28;;;;;;;;;;;;;;;2.53;90.90;99337.31;4954403;28;827;-58
2022/04/19 01:35:11;;;;;;;;;;;;;;;2.50;91.54;99337.22;4954446;29;882;-58
2022/04/19 01:37:38;;;;;;;;;;;;;;;2.44;92.46;99339.47;4954085;28;851;-58
2022/04/19 01:40:18;;;;;;;;;;;;;;;2.37;93.75;99347.47;4953994;29;816;-58
2022/04/19 01:42:48;;;;;;;;;;;;;;;2.29;94.30;99343.06;4953968;29;897;-58
2022/04/19 01:45:18;;;;;;;;;;;;;;;2.23;94.78;99348.78;4954098;29;792;-58
2022/04/19 01:47:45;;;;;;;;;;;;;;;2.27;95.41;99345.34;4954157;29;883;-58
2022/04/19 01:50:15;;;;;;;;;;;;;;;2.33;95.35;99349.38;4953948;29;804;-58
2022/04/19 01:52:42;;;;;;;;;;;;;;;2.37;94.75;99350.22;4953694;28;919;-58
2022/04/19 01:55:12;;;;;;;;;;;;;;;2.40;94.30;99346.78;4953782;29;970;-58
2022/04/19 01:57:38;;;;;;;;;;;;;;;2.36;94.61;99343.19;4953828;29;859;-58
2022/04/19 02:00:06;;;;;;;;;;;;;;;2.31;95.37;99344.28;4953687;29;887;-58
2022/04/19 02:02:32;;;;;;;;;;;;;;;2.31;96.13;99344.28;4953696;29;788;-58
2022/04/19 02:04:59;;;;;;;;;;;;;;;2.27;95.58;99343.41;4953723;29;879;-58
2022/04/19 02:07:25;;;;;;;;;;;;;;;2.29;96.84;99341.09;4953665;29;1019;-58
2022/04/19 02:09:52;;;;;;;;;;;;;;;2.27;96.87;99342.63;4953408;29;1938;-58
2022/04/19 02:12:20;;;;;;;;;;;;;;;2.24;96.64;99346.81;4953529;29;963;-58
2022/04/19 02:14:46;;;;;;;;;;;;;;;2.21;96.15;99348.34;4953428;29;982;-58
2022/04/19 02:17:13;;;;;;;;;;;;;;;2.18;95.81;99346.34;4953913;29;816;-58
2022/04/19 02:19:39;;;;;;;;;;;;;;;2.15;96.15;99352.50;4953500;28;796;-58
2022/04/19 02:22:06;;;;;;;;;;;;;;;2.11;95.92;99351.63;4953586;29;867;-58
2022/04/19 02:24:33;;;;;;;;;;;;;;;2.09;95.35;99356.66;4953012;29;1459;-58
2022/04/19 02:27:00;;;;;;;;;;;;;;;2.08;95.82;99355.06;4953497;29;835;-58
2022/04/19 02:29:28;;;;;;;;;;;;;;;2.10;95.74;99357.44;4953322;29;1976;-58
2022/04/19 02:31:54;;;;;;;;;;;;;;;2.11;95.54;99365.25;4953433;28;847;-58
2022/04/19 02:34:21;;;;;;;;;;;;;;;2.12;95.67;99360.59;4953439;29;816;-58
2022/04/19 02:36:48;;;;;;;;;;;;;;;2.12;95.49;99361.41;4953422;29;894;-58
2022/04/19 02:39:14;;;;;;;;;;;;;;;2.14;95.45;99356.38;4953190;29;900;-59
2022/04/19 02:41:41;;;;;;;;;;;;;;;2.14;95.18;99363.78;4936118;29;1575;-58
2022/04/19 02:44:08;;;;;;;;;;;;;;;2.14;95.39;99359.09;4953365;29;823;-58
2022/04/19 02:46:35;;;;;;;;;;;;;;;2.14;95.38;99364.56;4953321;29;867;-58
2022/04/19 02:49:05;;;;;;;;;;;;;;;2.16;95.89;99361.47;4953074;29;1910;-58
2022/04/19 02:51:32;;;;;;;;;;;;;;;2.18;96.12;99365.44;4953430;29;931;-58
2022/04/19 02:53:59;;;;;;;;;;;;;;;2.17;96.67;99365.78;4953258;29;872;-58
2022/04/19 02:56:25;;;;;;;;;;;;;;;2.16;96.37;99370.44;4953191;28;855;-58
2022/04/19 02:58:52;;;;;;;;;;;;;;;2.20;95.51;99359.63;4953548;29;811;-58
2022/04/19 03:01:19;;;;;;;;;;;;;;;2.21;95.04;99363.91;4953161;29;800;-59
2022/04/19 03:03:46;;;;;;;;;;;;;;;2.20;95.08;99359.63;4953059;29;947;-58
2022/04/19 03:06:13;;;;;;;;;;;;;;;2.19;94.99;99369.72;4953094;29;855;-58
2022/04/19 03:08:40;;;;;;;;;;;;;;;2.19;94.84;99372.44;4952927;29;1945;-58
2022/04/19 03:11:07;;;;;;;;;;;;;;;2.20;94.66;99367.81;4936184;29;820;-58
2022/04/19 03:13:35;;;;;;;;;;;;;;;2.19;94.86;99368.94;4952971;29;962;-58
2022/04/19 03:16:01;;;;;;;;;;;;;;;2.19;94.47;99377.13;4952930;29;860;-58
2022/04/19 03:18:30;;;;;;;;;;;;;;;2.17;95.42;99380.19;4953054;28;878;-58
2022/04/19 03:20:58;;;;;;;;;;;;;;;2.14;95.69;99382.84;4953009;29;839;-58
2022/04/19 03:28:55;;;;;;;;;;;;;;;2.02;95.98;99397.38;4952942;29;1907;-58
2022/04/19 03:31:22;;;;;;;;;;;;;;;1.99;96.60;99396.16;4952976;29;816;-58
2022/04/19 03:33:52;;;;;;;;;;;;;;;1.96;97.03;99401.53;4952958;29;808;-58
2022/04/19 03:36:19;;;;;;;;;;;;;;;1.93;97.41;99403.03;4953536;28;908;-58
2022/04/19 03:38:46;;;;;;;;;;;;;;;1.91;97.74;99397.13;4956596;29;879;-58
2022/04/19 03:41:13;;;;;;;;;;;;;;;1.94;98.69;99403.81;4956544;29;861;-58
2022/04/19 03:43:41;;;;;;;;;;;;;;;1.95;98.99;99414.38;4956170;28;886;-58
2022/04/19 03:46:11;;;;;;;;;;;;;;;1.97;99.79;99411.28;4956084;29;916;-58
2022/04/19 03:48:37;;;;;;;;;;;;;;;2.01;99.66;99418.41;4956074;29;1890;-58
2022/04/19 03:51:04;;;;;;;;;;;;;;;2.09;99.61;99424.81;4955937;28;856;-58
2022/04/19 03:53:31;;;;;;;;;;;;;;;2.15;99.73;99422.59;4956058;29;795;-58
2022/04/19 03:55:58;;;;;;;;;;;;;;;2.21;99.88;99416.50;4956018;29;879;-58
2022/04/19 03:58:28;;;;;;;;;;;;;;;2.27;99.72;99418.97;4955895;29;871;-58
2022/04/19 04:00:54;;;;;;;;;;;;;;;2.32;100.00;99418.69;4956476;29;756;-58
2022/04/19 04:03:21;;;;;;;;;;;;;;;2.41;100.00;99416.53;4955730;29;852;-58
2022/04/19 04:05:48;;;;;;;;;;;;;;;2.49;100.00;99422.94;4938561;29;1511;-58
2022/04/19 04:08:14;;;;;;;;;;;;;;;2.56;100.00;99425.81;4955730;29;1890;-58
2022/04/19 04:10:41;;;;;;;;;;;;;;;2.63;100.00;99424.03;4955658;29;904;-58
2022/04/19 04:13:09;;;;;;;;;;;;;;;2.65;100.00;99426.41;4955698;29;843;-58
2022/04/19 04:15:36;;;;;;;;;;;;;;;2.57;100.00;99427.41;4938332;29;883;-58
2022/04/19 04:18:03;;;;;;;;;;;;;;;2.44;100.00;99426.75;4955588;29;871;-58
2022/04/19 04:20:29;;;;;;;;;;;;;;;2.44;100.00;99421.31;4955559;29;1036;-58
2022/04/19 04:22:56;;;;;;;;;;;;;;;2.45;100.00;99423.69;4955425;29;1023;-58
2022/04/19 04:25:23;;;;;;;;;;;;;;;2.49;100.00;99425.69;4955219;29;1434;-59
2022/04/19 04:27:50;;;;;;;;;;;;;;;2.56;100.00;99421.19;4955596;29;847;-58
2022/04/19 04:30:16;;;;;;;;;;;;;;;2.63;100.00;99424.03;4955239;29;1914;-59
2022/04/19 04:32:43;;;;;;;;;;;;;;;2.61;100.00;99431.00;4955368;29;895;-59
2022/04/19 04:35:10;;;;;;;;;;;;;;;2.65;100.00;99426.41;4955164;29;819;-59
2022/04/19 04:37:37;;;;;;;;;;;;;;;2.74;100.00;99421.53;4955147;29;943;-59
2022/04/19 04:40:04;;;;;;;;;;;;;;;2.81;100.00;99431.81;4955179;29;839;-59
2022/04/19 04:42:31;;;;;;;;;;;;;;;2.79;100.00;99423.97;4955101;29;808;-59
2022/04/19 04:44:57;;;;;;;;;;;;;;;2.81;100.00;99424.41;4955119;29;1006;-59
2022/04/19 04:50:10;;;;;;;;;;;;;;;2.99;100.00;99413.84;4954978;29;1902;-59
2022/04/19 04:52:36;;;;;;;;;;;;;;;3.07;100.00;99420.22;4954862;28;854;-59
2022/04/19 04:55:05;;;;;;;;;;;;;;;2.91;100.00;99427.72;4955044;29;859;-59
2022/04/19 04:57:31;;;;;;;;;;;;;;;2.81;100.00;99421.66;4955006;29;859;-59
2022/04/19 04:59:57;;;;;;;;;;;;;;;2.75;98.87;99425.03;4954803;29;828;-59
2022/04/19 05:02:25;;;;;;;;;;;;;;;2.70;98.65;99428.06;4955075;28;902;-59
2022/04/19 05:04:51;;;;;;;;;;;;;;;2.62;99.31;99424.41;4937399;29;1193;-59
2022/04/19 05:07:18;;;;;;;;;;;;;;;2.48;97.91;99429.56;4954690;29;862;-59
2022/04/19 05:09:45;;;;;;;;;;;;;;;2.41;98.15;99427.44;4954547;29;1974;-59
2022/04/19 05:12:11;;;;;;;;;;;;;;;2.36;99.54;99433.19;4954589;29;811;-59
2022/04/19 05:14:38;;;;;;;;;;;;;;;2.35;99.48;99435.13;4954839;29;879;-59
2022/04/19 05:17:05;;;;;;;;;;;;;;;2.39;100.00;99429.75;4954596;29;831;-59
2022/04/19 05:19:31;;;;;;;;;;;;;;;2.36;99.11;99439.44;4954456;29;847;-59
2022/04/19 05:21:57;;;;;;;;;;;;;;;2.35;99.58;99423.44;4954444;29;1011;-59
2022/04/19 05:24:24;;;;;;;;;;;;;;;2.36;99.38;99422.28;4954337;28;1361;-59
2022/04/19 05:26:51;;;;;;;;;;;;;;;2.31;99.12;99428.81;4954360;29;878;-59
2022/04/19 05:29:18;;;;;;;;;;;;;;;2.26;99.74;99423.63;4954281;29;1981;-59
2022/04/19 05:31:44;;;;;;;;;;;;;;;2.25;100.00;99425.56;4954185;28;838;-59
2022/04/19 05:34:11;;;;;;;;;;;;;;;2.29;100.00;99427.59;4954114;29;867;-59
2022/04/19 05:36:38;;;;;;;;;;;;;;;2.37;99.95;99435.56;4954239;29;816;-59
2022/04/19 05:39:04;;;;;;;;;;;;;;;2.47;99.59;99425.25;4954277;28;904;-59
2022/04/19 05:41:32;;;;;;;;;;;;;;;2.56;100.00;99423.91;4954429;29;831;-59
2022/04/19 05:43:59;;;;;;;;;;;;;;;2.66;99.93;99430.72;4954054;29;868;-60
2022/04/19 05:46:26;;;;;;;;;;;;;;;2.78;99.57;99436.03;4954022;28;873;-60
2022/04/19 05:48:53;;;;;;;;;;;;;;;2.93;99.21;99434.38;4953782;29;1955;-60
2022/04/19 05:51:20;;;;;;;;;;;;;;;3.18;98.83;99426.69;4953920;29;851;-60
2022/04/19 05:53:47;;;;;;;;;;;;;;;3.41;96.43;99434.09;4954165;29;879;-59
2022/04/19 05:56:14;;;;;;;;;;;;;;;3.81;94.90;99439.09;4953872;29;804;-59
2022/04/19 05:58:40;;;;;;;;;;;;;;;4.13;93.44;99440.75;4952985;28;848;-60
2022/04/19 06:01:07;;;;;;;;;;;;;;;4.39;92.29;99448.16;4953727;29;835;-59
2022/04/19 06:06:19;;;;;;;;;;;;;;;4.11;90.52;99443.84;4953712;29;654;-59
2022/04/19 06:08:46;;;;;;;;;;;;;;;3.95;91.02;99452.22;4953539;29;1949;-59
2022/04/19 06:11:12;;;;;;;;;;;;;;;3.97;92.25;99452.63;4953670;29;867;-59
2022/04/19 06:13:40;;;;;;;;;;;;;;;4.04;93.47;99454.69;4953622;29;863;-60
2022/04/19 06:16:07;;;;;;;;;;;;;;;4.28;94.06;99459.75;4953610;28;799;-60
2022/04/19 06:18:34;;;;;;;;;;;;;;;4.42;90.24;99453.69;4953605;29;831;-59
2022/04/19 06:21:01;;;;;;;;;;;;;;;4.20;88.74;99452.59;4953582;29;852;-59
2022/04/19 06:23:28;;;;;;;;;;;;;;;4.16;91.34;99465.44;4953392;29;1021;-60
2022/04/19 06:25:54;;;;;;;;;;;;;;;4.27;93.25;99466.38;4953497;29;1448;-60
2022/04/19 06:28:21;;;;;;;;;;;;;;;4.49;93.40;99463.97;4953403;28;1950;-60
2022/04/19 06:30:48;;;;;;;;;;;;;;;4.51;93.47;99453.44;4953555;29;840;-60
2022/04/19 06:33:13;;;;;;;;;;;;;;;4.46;91.35;99461.97;4953349;29;867;-60
2022/04/19 06:35:41;;;;;;;;;;;;;;;4.53;91.76;99461.28;4953437;29;978;-60
2022/04/19 06:38:09;;;;;;;;;;;;;;;4.55;90.46;99462.47;4953471;29;891;-60
2022/04/19 06:40:35;;;;;;;;;;;;;;;4.70;90.85;99466.19;4953398;29;886;-60
2022/04/19 06:43:02;;;;;;;;;;;;;;;4.81;89.96;99461.66;4953368;29;871;-60
2022/04/19 06:45:29;;;;;;;;;;;;;;;4.70;89.14;99458.00;4953302;28;843;-60
2022/04/19 06:47:58;;;;;;;;;;;;;;;4.48;88.98;99459.63;4953367;29;828;-60
2022/04/19 06:50:25;;;;;;;;;;;;;;;4.63;91.53;99468.81;4953205;29;847;-60
2022/04/19 06:52:54;;;;;;;;;;;;;;;4.57;90.70;99467.59;4953307;29;870;-60
2022/04/19 06:55:21;;;;;;;;;;;;;;;4.77;90.14;99470.97;4953326;29;859;-60
2022/04/19 06:57:48;;;;;;;;;;;;;;;4.99;88.90;99483.00;4953251;29;878;-60
2022/04/19 07:00:15;;;;;;;;;;;;;;;5.10;86.92;99484.72;4953222;28;842;-59
2022/04/19 07:02:44;;;;;;;;;;;;;;;5.25;87.68;99482.16;4953152;29;832;-60
2022/04/19 07:05:12;;;;;;;;;;;;;;;5.48;88.26;99482.78;4953063;29;924;-59
2022/04/19 07:07:42;;;;;;;;;;;;;;;5.75;88.25;99479.91;4953155;29;839;-59
2022/04/19 07:10:10;;;;;;;;;;;;;;;5.88;84.04;99475.72;4953926;28;1899;-59
2022/04/19 07:12:37;;;;;;;;;;;;;;;5.79;84.80;99480.72;4956793;29;819;-60
2022/04/19 07:15:04;;;;;;;;;;;;;;;5.90;87.28;99473.38;4956662;29;939;-60
2022/04/19 07:17:30;;;;;;;;;;;;;;;6.27;84.09;99483.50;4956651;29;848;-59
2022/04/19 07:28:15;;;;;;;;;;;;;;;6.05;84.97;99485.28;4956520;29;1918;-59
2022/04/19 07:30:43;;;;;;;;;;;;;;;5.81;86.06;99492.13;4956474;29;812;-60
2022/04/19 07:33:10;;;;;;;;;;;;;;;5.52;83.27;99494.56;4955129;29;1612;-59
2022/04/19 07:35:37;;;;;;;;;;;;;;;5.41;84.68;99487.41;4956379;28;828;-59
2022/04/19 07:38:04;;;;;;;;;;;;;;;5.45;87.37;99491.75;4956327;29;815;-60
2022/04/19 07:40:31;;;;;;;;;;;;;;;5.61;87.29;99482.50;4956433;29;831;-60
2022/04/19 07:42:57;;;;;;;;;;;;;;;5.84;86.88;99496.03;4956198;28;823;-60
2022/04/19 07:45:24;;;;;;;;;;;;;;;5.87;84.71;99485.13;4956264;29;899;-60
2022/04/19 07:47:50;;;;;;;;;;;;;;;5.89;82.59;99491.00;4956161;29;859;-60
2022/04/19 07:50:17;;;;;;;;;;;;;;;6.25;84.55;99491.34;4956053;29;1980;-59
2022/04/19 07:52:44;;;;;;;;;;;;;;;6.06;82.81;99491.56;4956106;29;831;-60
2022/04/19 07:55:10;;;;;;;;;;;;;;;6.10;83.89;99493.19;4954864;29;886;-59
2022/04/19 07:57:37;;;;;;;;;;;;;;;6.49;85.00;99489.16;4955911;28;862;-59
2022/04/19 08:00:04;;;;;;;;;;;;;;;7.05;83.80;99485.13;4956280;29;883;-59
2022/04/19 08:02:31;;;;;;;;;;;;;;;6.95;80.09;99486.63;4954671;29;1609;-59
2022/04/19 08:04:57;;;;;;;;;;;;;;;6.96;78.58;99492.94;4955798;29;866;-59
2022/04/19 08:07:24;;;;;;;;;;;;;;;7.02;80.61;99494.16;4955846;29;852;-59
2022/04/19 08:09:51;;;;;;;;;;;;;;;7.02;80.95;99493.34;4955673;29;1963;-59
2022/04/19 08:12:18;;;;;;;;;;;;;;;6.96;78.45;99501.19;4955740;29;875;-58
2022/04/19 08:14:45;;;;;;;;;;;;;;;6.91;79.01;99493.28;4955656;29;808;-59
2022/04/19 08:17:13;;;;;;;;;;;;;;;7.14;80.41;99493.00;4955743;29;839;-59
2022/04/19 08:19:40;;;;;;;;;;;;;;;7.47;79.38;99494.69;4955552;28;847;-58
2022/04/19 08:22:06;;;;;;;;;;;;;;;7.64;83.07;99498.66;4954654;28;911;-59
2022/04/19 08:24:34;;;;;;;;;;;;;;;7.59;76.09;99493.53;4955547;28;1198;-59
2022/04/19 08:26:59;;;;;;;;;;;;;;;7.65;76.57;99500.22;4955782;29;914;-59
2022/04/19 08:29:26;;;;;;;;;;;;;;;7.29;72.17;99502.88;4955304;29;1914;-59
2022/04/19 08:31:53;;;;;;;;;;;;;;;7.01;76.58;99495.31;4955339;29;863;-59
2022/04/19 08:34:19;;;;;;;;;;;;;;;7.25;82.53;99498.53;4955306;28;840;-59
2022/04/19 08:36:47;;;;;;;;;;;;;;;7.31;77.09;99491.50;4955280;29;898;-58
2022/04/19 08:39:13;;;;;;;;;;;;;;;6.96;78.34;99487.44;4955300;29;851;-59
2022/04/19 08:41:40;;;;;;;;;;;;;;;6.67;78.85;99487.28;4955191;29;824;-59
2022/04/19 08:44:07;;;;;;;;;;;;;;;6.75;79.73;99490.88;4955295;29;867;-59
2022/04/19 08:46:37;;;;;;;;;;;;;;;6.91;81.53;99488.59;4955085;29;882;-59
2022/04/19 08:49:04;;;;;;;;;;;;;;;7.13;81.47;99497.72;4954960;29;1950;-59
2022/04/19 08:51:34;;;;;;;;;;;;;;;6.85;78.72;99495.63;4955208;29;950;-59
2022/04/19 08:59:32;;;;;;;;;;;;;;;6.59;80.33;99495.88;4955144;29;618;-59
2022/04/19 09:02:02;;;;;;;;;;;;;;;6.48;81.02;99491.09;4954691;28;914;-59
2022/04/19 09:04:28;;;;;;;;;;;;;;;6.20;80.17;99496.38;4954812;29;839;-59
2022/04/19 09:06:56;;;;;;;;;;;;;;;6.08;82.27;99497.44;4954764;29;827;-59
2022/04/19 09:09:32;;;;;;;;;;;;;;;6.18;82.69;99498.72;4954577;28;1882;-59
2022/04/19 09:12:10;;;;;;;;;;;;;;;6.26;83.88;99503.88;4954679;29;835;-59
2022/04/19 09:14:54;;;;;;;;;;;;;;;6.28;86.20;99500.75;4954595;29;851;-59
2022/04/19 09:17:28;;;;;;;;;;;;;;;6.21;84.01;99503.44;4954621;29;954;-59
2022/04/19 09:20:07;;;;;;;;;;;;;;;5.89;83.86;99504.72;4954476;29;819;-59
2022/04/19 09:22:33;;;;;;;;;;;;;;;5.84;87.21;99507.00;4954506;29;882;-59
2022/04/19 09:25:20;;;;;;;;;;;;;;;5.69;86.13;99500.59;4954491;28;1208;-59
2022/04/19 09:27:48;;;;;;;;;;;;;;;5.56;87.29;99499.31;4943906;29;1272;-59
2022/04/19 09:30:24;;;;;;;;;;;;;;;5.60;85.83;99498.16;4954391;29;1907;-59
2022/04/19 09:33:09;;;;;;;;;;;;;;;5.58;87.12;99510.69;4954130;28;996;-60
2022/04/19 09:35:40;;;;;;;;;;;;;;;5.35;87.92;99506.13;4937034;29;828;-60
2022/04/19 09:38:08;;;;;;;;;;;;;;;5.32;88.85;99504.13;4954271;29;875;-60
2022/04/19 09:40:44;;;;;;;;;;;;;;;5.29;90.29;99507.59;4954140;29;827;-60
2022/04/19 09:43:12;;;;;;;;;;;;;;;5.08;87.96;99506.22;4954297;29;827;-60
2022/04/19 09:46:05;;;;;;;;;;;;;;;4.91;88.89;99501.31;4936842;29;1203;-60
2022/04/19 09:48:35;;;;;;;;;;;;;;;4.97;91.73;99504.47;4951523;29;1883;-61
2022/04/19 09:51:03;;;;;;;;;;;;;;;5.15;93.38;99501.97;4953982;29;831;-60
2022/04/19 09:53:33;;;;;;;;;;;;;;;5.18;92.53;99507.47;4953919;29;823;-60
2022/04/19 09:55:59;;;;;;;;;;;;;;;5.16;92.86;99509.81;4936672;29;1150;-60
2022/04/19 10:24:17;;;;;;;;;;;;;;;6.67;95.02;99508.47;5739806;23;1513;-60
2022/04/19 10:26:48;;;;;;;;;;;;;;;7.09;92.49;99501.63;4992508;28;865;-61
2022/04/19 10:29:18;;;;;;;;;;;;;;;7.06;88.28;99505.13;4992139;28;1910;-61
2022/04/19 10:31:54;;;;;;;;;;;;;;;7.18;89.80;99506.78;4992190;28;803;-61
2022/04/19 10:34:25;;;;;;;;;;;;;;;7.98;90.65;99503.84;4992461;28;823;-61
2022/04/19 10:36:54;;;;;;;;;;;;;;;8.36;88.73;99499.50;4992327;28;882;-61
2022/04/19 10:39:30;;;;;;;;;;;;;;;8.74;88.95;99504.56;4992304;28;826;-61
2022/04/19 10:42:05;;;;;;;;;;;;;;;9.19;88.71;99504.81;4992081;28;1029;-61
2022/04/19 10:44:48;;;;;;;;;;;;;;;9.48;87.94;99504.72;4992147;28;858;-61
2022/04/19 10:47:16;;;;;;;;;;;;;;;9.65;85.48;99503.03;4996025;28;811;-60
2022/04/19 10:49:49;;;;;;;;;;;;;;;9.64;84.77;99507.75;4996313;28;1886;-60
2022/04/19 10:52:33;;;;;;;;;;;;;;;9.69;86.89;99506.56;4995918;28;869;-61
2022/04/19 10:55:18;;;;;;;;;;;;;;;9.52;86.51;99497.97;4978397;28;1154;-61
2022/04/19 11:00:45;;;;;;;;;;;;;;;8.34;86.30;99495.56;4995989;28;894;-61
2022/04/19 11:03:13;;;;;;;;;;;;;;;7.67;83.57;99502.59;4995793;28;839;-61
2022/04/19 11:05:44;;;;;;;;;;;;;;;7.30;87.45;99503.69;4995743;28;815;-61
2022/04/19 11:08:25;;;;;;;;;;;;;;;7.08;87.67;99509.09;4995709;28;1894;-61
2022/04/19 11:11:07;;;;;;;;;;;;;;;7.27;91.28;99515.44;4995572;28;831;-61
2022/04/19 11:13:36;;;;;;;;;;;;;;;8.04;92.27;99515.22;4995717;28;826;-61
2022/04/19 11:16:16;;;;;;;;;;;;;;;8.71;89.15;99506.16;4995606;28;861;-60
2022/04/19 11:18:43;;;;;;;;;;;;;;;9.01;86.21;99509.63;4995616;28;889;-61
2022/04/19 11:21:11;;;;;;;;;;;;;;;8.93;86.08;99509.63;4995477;28;803;-61
2022/04/19 11:24:04;;;;;;;;;;;;;;;8.68;85.80;99515.22;4995394;28;955;-61
2022/04/19 11:26:32;;;;;;;;;;;;;;;8.55;87.53;99503.03;4991239;28;1515;-60
2022/04/19 11:29:10;;;;;;;;;;;;;;;8.42;88.15;99504.63;4995151;28;1970;-60
2022/04/19 11:31:56;;;;;;;;;;;;;;;8.17;89.91;99505.38;4995248;28;878;-60
2022/04/19 11:34:23;;;;;;;;;;;;;;;7.93;88.88;99507.72;4995177;28;1940;-60
2022/04/19 11:36:56;;;;;;;;;;;;;;;7.75;90.94;99509.69;4995149;28;886;-60
2022/04/19 11:47:59;;;;;;;;;;;;;;;8.10;90.45;99506.19;4995260;28;681;-60
2022/04/19 11:50:26;;;;;;;;;;;;;;;8.33;90.56;99505.00;4994814;28;1943;-60
2022/04/19 11:52:52;;;;;;;;;;;;;;;8.35;90.14;99508.16;4994843;28;885;-60
2022/04/19 11:55:22;;;;;;;;;;;;;;;8.20;89.77;99496.34;4977228;28;1276;-60
2022/04/19 11:58:00;;;;;;;;;;;;;;;7.76;90.05;99503.00;4993556;28;836;-60
2022/04/19 12:00:26;;;;;;;;;;;;;;;7.47;91.21;99500.19;4977446;28;1360;-58
2022/04/19 12:02:52;;;;;;;;;;;;;;;7.43;93.32;99510.41;4994887;28;880;-60
2022/04/19 12:05:26;;;;;;;;;;;;;;;7.42;91.54;99502.53;4977605;28;647;-60
2022/04/19 12:07:52;;;;;;;;;;;;;;;7.30;90.42;99509.97;4994587;28;867;-60
2022/04/19 12:10:20;;;;;;;;;;;;;;;7.12;90.03;99500.84;4977263;28;1887;-60
2022/04/19 12:12:47;;;;;;;;;;;;;;;6.77;92.27;99510.50;4994706;28;815;-60
2022/04/19 12:15:34;;;;;;;;;;;;;;;6.44;91.67;99512.25;4994510;28;807;-60
2022/04/19 12:18:00;;;;;;;;;;;;;;;5.84;90.30;99516.03;4994347;28;1614;-60
2022/04/19 12:20:27;;;;;;;;;;;;;;;5.40;93.61;99515.94;4994424;28;799;-60
2022/04/19 12:22:54;;;;;;;;;;;;;;;5.02;94.34;99526.09;4994184;28;965;-60
2022/04/19 12:25:23;;;;;;;;;;;;;;;4.77;95.86;99525.75;4994099;28;1294;-60
2022/04/19 12:27:54;;;;;;;;;;;;;;;4.37;96.54;99530.63;4994324;28;815;-60
2022/04/19 12:30:27;;;;;;;;;;;;;;;4.04;98.17;99534.00;4994085;28;1906;-59
2022/04/19 12:32:54;;;;;;;;;;;;;;;3.81;99.68;99525.78;4994201;28;799;-60
2022/04/19 12:35:33;;;;;;;;;;;;;;;3.56;99.59;99528.84;4993984;28;948;-60
2022/04/19 12:38:16;;;;;;;;;;;;;;;3.46;100.00;99524.78;4993987;28;923;-59
2022/04/19 12:40:46;;;;;;;;;;;;;;;3.54;100.00;99524.91;4994021;28;867;-59
2022/04/19 12:43:14;;;;;;;;;;;;;;;3.59;100.00;99524.63;4993935;28;843;-59
2022/04/19 12:45:41;;;;;;;;;;;;;;;3.67;100.00;99529.06;4993894;28;847;-61
2022/04/19 12:48:17;;;;;;;;;;;;;;;3.61;100.00;99525.06;4993879;28;866;-60
2022/04/19 12:50:43;;;;;;;;;;;;;;;3.62;100.00;99523.88;4993807;28;823;-60
2022/04/19 12:53:23;;;;;;;;;;;;;;;3.82;100.00;99528.16;4993638;28;796;-60
2022/04/19 12:55:49;;;;;;;;;;;;;;;3.94;100.00;99529.13;4993762;28;939;-60
2022/04/19 12:58:16;;;;;;;;;;;;;;;3.87;100.00;99525.13;4976280;28;1772;-60
2022/04/19 13:00:43;;;;;;;;;;;;;;;3.80;100.00;99518.75;4993582;28;962;-60
2022/04/19 13:03:09;;;;;;;;;;;;;;;3.88;100.00;99515.78;4993836;28;866;-60
2022/04/19 13:13:51;;;;;;;;;;;;;;;4.32;100.00;99520.00;4993355;28;697;-61
2022/04/19 13:16:18;;;;;;;;;;;;;;;4.39;100.00;99513.84;4993302;28;830;-61
2022/04/19 13:18:44;;;;;;;;;;;;;;;4.50;100.00;99512.88;4993199;28;867;-61
2022/04/19 13:21:11;;;;;;;;;;;;;;;4.49;100.00;99511.28;4993367;28;803;-61
2022/04/19 13:23:37;;;;;;;;;;;;;;;4.56;100.00;99509.78;4993064;28;1037;-61
2022/04/19 13:26:04;;;;;;;;;;;;;;;4.60;100.00;99513.38;4992898;28;1311;-61
2022/04/19 13:28:31;;;;;;;;;;;;;;;4.68;100.00;99506.84;4992985;28;1973;-61
2022/04/19 13:30:57;;;;;;;;;;;;;;;4.81;99.72;99513.69;4993005;28;811;-61
2022/04/19 13:33:24;;;;;;;;;;;;;;;4.74;98.35;99524.53;4993222;28;873;-61
2022/04/19 13:35:50;;;;;;;;;;;;;;;4.61;98.46;99523.16;4993248;28;901;-61
2022/04/19 13:38:23;;;;;;;;;;;;;;;4.62;99.19;99522.00;4992915;28;890;-61
2022/04/19 13:40:49;;;;;;;;;;;;;;;4.79;100.00;99520.69;4992878;28;885;-61
2022/04/19 13:43:16;;;;;;;;;;;;;;;5.13;100.00;99531.69;4993012;28;818;-61
2022/04/19 13:45:43;;;;;;;;;;;;;;;5.33;100.00;99524.88;4992929;28;854;-61
2022/04/19 13:48:09;;;;;;;;;;;;;;;5.28;99.49;99538.94;4992772;28;863;-61
2022/04/19 13:50:36;;;;;;;;;;;;;;;5.29;100.00;99527.59;4992536;28;1882;-61
2022/04/19 13:53:03;;;;;;;;;;;;;;;5.34;100.00;99526.47;4992658;28;819;-61
2022/04/19 13:55:28;;;;;;;;;;;;;;;5.58;100.00;99527.13;4992573;28;890;-61
2022/04/19 13:57:58;;;;;;;;;;;;;;;5.62;99.89;99527.97;4992592;28;858;-62
2022/04/19 14:00:24;;;;;;;;;;;;;;;5.71;99.48;99528.44;4992828;28;1016;-62
2022/04/19 14:02:51;;;;;;;;;;;;;;;5.67;98.20;99527.63;4992510;28;1155;-62
2022/04/19 14:05:18;;;;;;;;;;;;;;;5.42;99.01;99539.09;4992475;28;795;-62
2022/04/19 14:07:44;;;;;;;;;;;;;;;5.04;99.66;99538.25;4992441;28;823;-62
2022/04/19 14:10:11;;;;;;;;;;;;;;;4.75;100.00;99539.78;4992384;28;1886;-62
2022/04/19 14:12:38;;;;;;;;;;;;;;;4.59;100.00;99530.97;4992346;28;881;-62
2022/04/19 14:15:05;;;;;;;;;;;;;;;4.52;100.00;99528.91;4992411;28;814;-62
2022/04/19 14:17:33;;;;;;;;;;;;;;;4.59;100.00;99539.97;4992392;28;898;-62
2022/04/19 14:20:00;;;;;;;;;;;;;;;4.57;100.00;99530.56;4991536;28;830;-62
2022/04/19 14:22:26;;;;;;;;;;;;;;;4.47;100.00;99532.75;4992323;28;873;-62
2022/04/19 14:24:54;;;;;;;;;;;;;;;4.41;100.00;99536.16;4992185;28;1211;-62
2022/04/19 14:27:20;;;;;;;;;;;;;;;4.43;100.00;99537.38;4992251;28;858;-61
2022/04/19 14:35:17;;;;;;;;;;;;;;;4.29;100.00;99542.63;4992446;28;636;-61
2022/04/19 14:37:43;;;;;;;;;;;;;;;4.29;100.00;99543.41;4992086;28;877;-61
2022/04/19 14:40:10;;;;;;;;;;;;;;;4.33;100.00;99543.47;4992214;28;890;-61